^^
Grace C. Lehan Memorial Weather Station Historical Data
Daily Summary for May 24, 2022 Units:  Metric    English   Both
Daily Weekly Monthly Yearly
  High: Low: Average:
Temperature: 23.7 °C 12.6 °C 17.6 °C
Dew Point: 11.3 °C 6.7 °C 8.6 °C
Humidity: 73% 40.7% 56%
Wind Speed: 4.8km/h 0km/h 0.6km/h
Wind Gust: 16.1km/h - -
Wind- - ESE
Pressure: 1026.6 hPa 1022.9 hPa -
Precipitation: 0 mm    
 
 
Tabular Data for May 24, 2022
Time Temperature Dew Point Pressure Wind Wind Speed Wind Gust Humidity Rainfall Rate (Hourly) solar
00:09 17.8 °C 7.9 °C 1022.9 hPa Calm     52.5% 0 mm 0 W/m2
00:14 17.8 °C 8.1 °C 1022.9 hPa NNE 0.2 km/h 3.2 km/h 53% 0 mm 0 W/m2
00:19 17.7 °C 8.3 °C 1023.2 hPa NNE 0.3 km/h 4.8 km/h 54% 0 mm 0 W/m2
00:24 17.6 °C 8.1 °C 1023.2 hPa North 0.5 km/h 4.8 km/h 53.8% 0 mm 0 W/m2
00:29 17.6 °C 8.1 °C 1023.2 hPa Calm   4.8 km/h 53.9% 0 mm 0 W/m2
00:34 17.4 °C 8.1 °C 1023.2 hPa NNW 1.3 km/h 8 km/h 54.2% 0 mm 0 W/m2
00:39 17.3 °C 8 °C 1023.2 hPa NW 0.6 km/h 8 km/h 54.2% 0 mm 0 W/m2
00:44 17.2 °C 8 °C 1023.2 hPa NNW 1.6 km/h 9.7 km/h 54.5% 0 mm 0 W/m2
00:49 17.1 °C 7.9 °C 1023.2 hPa NW 0.5 km/h 9.7 km/h 54.8% 0 mm 0 W/m2
00:54 17 °C 7.8 °C 1023.2 hPa NNW 0.8 km/h 9.7 km/h 54.7% 0 mm 0 W/m2
00:59 16.9 °C 7.8 °C 1023.2 hPa North 0.5 km/h 9.7 km/h 54.8% 0 mm 0 W/m2
01:04 16.8 °C 7.9 °C 1023.2 hPa NNW 1 km/h 9.7 km/h 55.4% 0 mm 0 W/m2
01:09 16.8 °C 7.7 °C 1023.2 hPa NW 0.8 km/h 6.4 km/h 55.1% 0 mm 0 W/m2
01:14 16.7 °C 7.7 °C 1023.2 hPa North 1.4 km/h 11.3 km/h 55.1% 0 mm 0 W/m2
01:19 16.6 °C 7.6 °C 1023.2 hPa NE 0.3 km/h 11.3 km/h 55.4% 0 mm 0 W/m2
01:24 16.5 °C 7.4 °C 1023.2 hPa NE 0.5 km/h 11.3 km/h 55% 0 mm 0 W/m2
01:29 16.4 °C 7.4 °C 1023.2 hPa NE 0.2 km/h 11.3 km/h 55% 0 mm 0 W/m2
01:34 16.3 °C 7.3 °C 1023.2 hPa NNE 1.1 km/h 11.3 km/h 55% 0 mm 0 W/m2
01:39 16.3 °C 7.2 °C 1023.2 hPa NE 0.3 km/h 8 km/h 55% 0 mm 0 W/m2
01:44 16.2 °C 7.4 °C 1023.6 hPa NE 0.3 km/h 8 km/h 55.7% 0 mm 0 W/m2
01:49 16.2 °C 7.2 °C 1023.6 hPa NE 1 km/h 8 km/h 55% 0 mm 0 W/m2
01:54 16.1 °C 7.3 °C 1023.6 hPa NE 0.2 km/h 8 km/h 56% 0 mm 0 W/m2
01:59 16.1 °C 7.3 °C 1023.6 hPa Calm   8 km/h 56% 0 mm 0 W/m2
02:04 16.1 °C 7.4 °C 1023.6 hPa NE 0.2 km/h 8 km/h 56.4% 0 mm 0 W/m2
02:09 16 °C 7.6 °C 1023.6 hPa ENE 0.2 km/h 4.8 km/h 57.6% 0 mm 0 W/m2
02:14 15.9 °C 7.7 °C 1023.6 hPa NE 0.6 km/h 6.4 km/h 58.2% 0 mm 0 W/m2
02:19 15.8 °C 8.3 °C 1023.6 hPa NE 0.2 km/h 6.4 km/h 60.8% 0 mm 0 W/m2
02:24 15.7 °C 8.4 °C 1023.6 hPa Calm   6.4 km/h 61.8% 0 mm 0 W/m2
02:29 15.6 °C 8.7 °C 1023.6 hPa Calm   6.4 km/h 63.8% 0 mm 0 W/m2
02:34 15.4 °C 8.8 °C 1023.6 hPa North 0.3 km/h 6.4 km/h 64.5% 0 mm 0 W/m2
02:39 15.3 °C 8.5 °C 1023.6 hPa North 0.3 km/h 4.8 km/h 63.8% 0 mm 0 W/m2
02:44 15.2 °C 8.2 °C 1023.6 hPa North 0.2 km/h 4.8 km/h 62.8% 0 mm 0 W/m2
02:49 15.2 °C 8.3 °C 1023.6 hPa Calm   4.8 km/h 63.6% 0 mm 0 W/m2
02:54 15.1 °C 8.1 °C 1023.6 hPa NNE 0.6 km/h 6.4 km/h 62.8% 0 mm 0 W/m2
02:59 15 °C 8.1 °C 1023.9 hPa ENE 0.5 km/h 8 km/h 63.1% 0 mm 0 W/m2
03:04 14.9 °C 7.9 °C 1023.9 hPa ENE 0.5 km/h 8 km/h 62.6% 0 mm 0 W/m2
03:09 14.9 °C 7.9 °C 1023.9 hPa ENE 0.2 km/h 4.8 km/h 62.7% 0 mm 0 W/m2
03:14 14.9 °C 7.9 °C 1023.9 hPa NE 0.3 km/h 4.8 km/h 62.9% 0 mm 0 W/m2
03:19 14.9 °C 8 °C 1023.9 hPa Calm   4.8 km/h 63.4% 0 mm 0 W/m2
03:24 14.8 °C 7.9 °C 1023.9 hPa Calm   4.8 km/h 63% 0 mm 0 W/m2
03:29 14.8 °C 7.8 °C 1024.3 hPa NE 0.2 km/h 4.8 km/h 62.8% 0 mm 0 W/m2
03:34 14.7 °C 7.7 °C 1023.9 hPa NE 0.5 km/h 4.8 km/h 62.9% 0 mm 0 W/m2
03:39 14.7 °C 7.7 °C 1023.9 hPa NE 0.5 km/h 4.8 km/h 62.8% 0 mm 0 W/m2
03:44 14.7 °C 7.6 °C 1023.9 hPa ENE 0.6 km/h 4.8 km/h 62.5% 0 mm 0 W/m2
03:49 14.6 °C 7.6 °C 1023.9 hPa ENE 2.3 km/h 9.7 km/h 62.6% 0 mm 0 W/m2
03:54 14.6 °C 7.3 °C 1023.9 hPa ENE 0.8 km/h 9.7 km/h 61.8% 0 mm 0 W/m2
03:59 14.6 °C 7.3 °C 1023.9 hPa Calm   9.7 km/h 61.8% 0 mm 0 W/m2
04:00 14.6 °C 7.4 °C 1023.9 hPa Calm   9.7 km/h 62% 0 mm 0 W/m2
04:09 14.6 °C 7 °C 1023.9 hPa ENE 0.8 km/h 6.4 km/h 60.4% 0 mm 0 W/m2
04:14 14.6 °C 7 °C 1023.9 hPa ENE 1.9 km/h 6.4 km/h 60.5% 0 mm 0 W/m2
04:19 14.6 °C 6.9 °C 1023.9 hPa ENE 1.6 km/h 11.3 km/h 60% 0 mm 0 W/m2
04:24 14.6 °C 6.9 °C 1023.9 hPa NE 0.3 km/h 11.3 km/h 60% 0 mm 0 W/m2
04:29 14.5 °C 6.9 °C 1023.9 hPa NE 0.3 km/h 11.3 km/h 60.2% 0 mm 0 W/m2
04:34 14.5 °C 6.8 °C 1023.9 hPa ENE 0.3 km/h 11.3 km/h 60% 0 mm 0 W/m2
04:39 14.4 °C 6.8 °C 1023.9 hPa ENE 0.6 km/h 6.4 km/h 60% 0 mm 0 W/m2
04:44 14.4 °C 6.9 °C 1023.9 hPa Calm   6.4 km/h 60.7% 0 mm 0 W/m2
04:49 14.4 °C 6.9 °C 1023.9 hPa ENE 1.1 km/h 8 km/h 60.9% 0 mm 0 W/m2
04:54 14.4 °C 6.8 °C 1024.3 hPa ENE 0.5 km/h 8 km/h 60.3% 0 mm 0 W/m2
04:59 14.3 °C 6.7 °C 1023.9 hPa ENE 1.1 km/h 8 km/h 60.1% 0 mm 0 W/m2
05:04 14.3 °C 6.7 °C 1023.9 hPa ENE 0.2 km/h 8 km/h 60.2% 0 mm 0 W/m2
05:09 14.3 °C 6.8 °C 1023.9 hPa ENE 0.3 km/h 6.4 km/h 60.9% 0 mm 0 W/m2
05:14 14.2 °C 6.8 °C 1023.9 hPa ENE 0.2 km/h 6.4 km/h 60.8% 0 mm 0 W/m2
05:19 14.2 °C 6.8 °C 1023.9 hPa Calm   6.4 km/h 61% 0 mm 0 W/m2
05:24 14.2 °C 6.7 °C 1024.3 hPa Calm   6.4 km/h 61% 0 mm 0 W/m2
05:29 14.1 °C 6.9 °C 1023.9 hPa ENE 0.3 km/h 6.4 km/h 61.8% 0 mm 0 W/m2
05:34 14.1 °C 6.7 °C 1023.9 hPa ENE 0.2 km/h 6.4 km/h 61.2% 0 mm 7 W/m2
05:39 14 °C 6.8 °C 1024.3 hPa NE 0.5 km/h 6.4 km/h 62% 0 mm 14 W/m2
05:44 13.9 °C 6.7 °C 1024.3 hPa Calm   6.4 km/h 61.8% 0 mm 19 W/m2
05:49 13.9 °C 6.7 °C 1024.3 hPa NNW 0.3 km/h 6.4 km/h 62% 0 mm 23 W/m2
05:54 13.9 °C 6.7 °C 1024.3 hPa NNE 0.5 km/h 6.4 km/h 62% 0 mm 28 W/m2
05:59 13.8 °C 6.8 °C 1024.6 hPa East 0.2 km/h 6.4 km/h 62.6% 0 mm 37 W/m2
06:04 13.8 °C 6.8 °C 1024.6 hPa East 0.5 km/h 6.4 km/h 62.7% 0 mm 42 W/m2
06:09 13.8 °C 6.8 °C 1024.6 hPa NNE 0.5 km/h 6.4 km/h 62.8% 0 mm 49 W/m2
06:14 13.7 °C 6.8 °C 1024.6 hPa NNE 0.5 km/h 6.4 km/h 63.2% 0 mm 53 W/m2
06:19 13.7 °C 6.8 °C 1024.6 hPa ENE 0.5 km/h 6.4 km/h 63% 0 mm 56 W/m2
06:24 13.7 °C 6.9 °C 1024.9 hPa ESE 0.5 km/h 8 km/h 63.3% 0 mm 62 W/m2
06:29 13.7 °C 7 °C 1024.9 hPa Calm   8 km/h 64% 0 mm 65 W/m2
06:34 13.7 °C 7 °C 1024.9 hPa ESE 0.2 km/h 8 km/h 64% 0 mm 81 W/m2
06:39 13.7 °C 7.1 °C 1024.9 hPa Calm   3.2 km/h 64.3% 0 mm 93 W/m2
06:44 13.7 °C 7.2 °C 1024.9 hPa ESE 0.2 km/h 4.8 km/h 64.5% 0 mm 109 W/m2
06:49 13.7 °C 7.3 °C 1024.9 hPa NNE 1.1 km/h 6.4 km/h 65% 0 mm 127 W/m2
06:54 13.8 °C 7.3 °C 1024.9 hPa Calm   6.4 km/h 64.6% 0 mm 128 W/m2
06:59 13.9 °C 7.2 °C 1024.9 hPa ENE 0.8 km/h 6.4 km/h 64% 0 mm 127 W/m2
07:04 13.9 °C 7.4 °C 1025.3 hPa ENE 0.5 km/h 6.4 km/h 64.8% 0 mm 118 W/m2
07:09 13.9 °C 7.3 °C 1025.3 hPa NE 0.2 km/h 6.4 km/h 64.1% 0 mm 123 W/m2
07:14 14 °C 7.6 °C 1025.3 hPa NNE 0.3 km/h 8 km/h 65% 0 mm 130 W/m2
07:19 14 °C 7.4 °C 1025.3 hPa NNE 0.3 km/h 8 km/h 64.4% 0 mm 144 W/m2
07:24 14 °C 7.4 °C 1025.3 hPa NE 1 km/h 8 km/h 64.5% 0 mm 149 W/m2
07:29 14 °C 7.4 °C 1025.3 hPa NNE 1.1 km/h 8 km/h 64.7% 0 mm 169 W/m2
07:34 14.1 °C 7.4 °C 1025.6 hPa ENE 1.4 km/h 9.7 km/h 64.3% 0 mm 195 W/m2
07:39 14.2 °C 7.6 °C 1025.6 hPa ENE 1 km/h 9.7 km/h 64.6% 0 mm 202 W/m2
07:44 14.2 °C 7.6 °C 1025.6 hPa NE 0.2 km/h 9.7 km/h 64% 0 mm 202 W/m2
07:49 14.3 °C 7.6 °C 1025.6 hPa ENE 2.1 km/h 11.3 km/h 63.9% 0 mm 195 W/m2
07:54 14.3 °C 7.7 °C 1025.6 hPa ENE 0.5 km/h 11.3 km/h 64.1% 0 mm 202 W/m2
07:59 14.4 °C 7.8 °C 1026 hPa ENE 0.6 km/h 11.3 km/h 64.5% 0 mm 239 W/m2
08:00 14.5 °C 8 °C 1026 hPa NNE 1.6 km/h 11.3 km/h 65% 0 mm 239 W/m2
08:09 14.8 °C 8.1 °C 1026 hPa NE 0.6 km/h 3.2 km/h 64% 0 mm 248 W/m2
08:14 14.9 °C 7.9 °C 1026 hPa NE 0.5 km/h 3.2 km/h 63.1% 0 mm 265 W/m2
08:19 15 °C 8.1 °C 1026 hPa NNW 0.5 km/h 6.4 km/h 63.3% 0 mm 306 W/m2
08:24 15.1 °C 8.1 °C 1026 hPa NE 1.1 km/h 6.4 km/h 62.8% 0 mm 378 W/m2
08:29 15.3 °C 8.2 °C 1026 hPa ENE 1 km/h 6.4 km/h 62.7% 0 mm 387 W/m2
08:34 15.5 °C 8.4 °C 1026 hPa NE 0.6 km/h 6.4 km/h 62.4% 0 mm 336 W/m2
08:39 15.7 °C 8.1 °C 1026 hPa NE 1.9 km/h 8 km/h 60.3% 0 mm 306 W/m2
08:44 15.7 °C 7.8 °C 1026 hPa NE 0.6 km/h 8 km/h 59.5% 0 mm 294 W/m2
08:49 15.7 °C 8.3 °C 1026.3 hPa NE 0.3 km/h 8 km/h 61.4% 0 mm 341 W/m2
08:54 15.8 °C 8.1 °C 1026.3 hPa NE 1.6 km/h 8 km/h 60.1% 0 mm 410 W/m2
08:59 16 °C 8.1 °C 1026.3 hPa ENE 1.3 km/h 8 km/h 59.7% 0 mm 417 W/m2
09:04 16.2 °C 7.9 °C 1026.3 hPa ENE 2.4 km/h 16.1 km/h 58% 0 mm 399 W/m2
09:09 16.3 °C 8.1 °C 1026.3 hPa ENE 2.1 km/h 16.1 km/h 58.4% 0 mm 496 W/m2
09:14 16.4 °C 8.2 °C 1026.3 hPa NNE 1.6 km/h 16.1 km/h 58.1% 0 mm 564 W/m2
09:19 16.7 °C 8.7 °C 1026.3 hPa NE 1.8 km/h 16.1 km/h 59.2% 0 mm 594 W/m2
09:24 16.9 °C 8.2 °C 1026.3 hPa East 2.3 km/h 16.1 km/h 56.5% 0 mm 478 W/m2
09:29 16.9 °C 8.1 °C 1026.3 hPa ENE 0.5 km/h 16.1 km/h 56% 0 mm 480 W/m2
09:34 17 °C 8.6 °C 1026.3 hPa ENE 1.8 km/h 16.1 km/h 57.8% 0 mm 550 W/m2
09:39 17.2 °C 8.7 °C 1026.3 hPa NE 1.9 km/h 9.7 km/h 57.4% 0 mm 621 W/m2
09:44 17.3 °C 8.4 °C 1026.3 hPa ENE 3.7 km/h 9.7 km/h 55.5% 0 mm 621 W/m2
09:49 17.2 °C 8.4 °C 1026.3 hPa ENE 1.6 km/h 9.7 km/h 56.1% 0 mm 436 W/m2
09:54 17.2 °C 8.5 °C 1026.3 hPa ENE 2.1 km/h 9.7 km/h 56.9% 0 mm 708 W/m2
09:59 17.1 °C 8.6 °C 1026.3 hPa ENE 1.1 km/h 9.7 km/h 57.1% 0 mm 589 W/m2
10:04 17.2 °C 8.6 °C 1026.3 hPa ENE 2.1 km/h 9.7 km/h 56.9% 0 mm 652 W/m2
10:09 17.2 °C 8.7 °C 1026.3 hPa ENE 1.1 km/h 9.7 km/h 57.3% 0 mm 621 W/m2
10:14 17.4 °C 9.1 °C 1026.3 hPa NNE 1.4 km/h 9.7 km/h 58.3% 0 mm 621 W/m2
10:19 17.7 °C 8.9 °C 1026 hPa NNE 1.1 km/h 9.7 km/h 56.5% 0 mm 661 W/m2
10:24 17.8 °C 9 °C 1026 hPa NNE 0.3 km/h 9.7 km/h 56.3% 0 mm 765 W/m2
10:29 18.1 °C 9.4 °C 1026 hPa NE 4.8 km/h 16.1 km/h 56.8% 0 mm 689 W/m2
10:34 18.4 °C 9.3 °C 1026.3 hPa NE 2.1 km/h 16.1 km/h 55.3% 0 mm 766 W/m2
10:39 18.7 °C 9.2 °C 1026.3 hPa NE 2.4 km/h 11.3 km/h 54.1% 0 mm 796 W/m2
10:44 18.7 °C 9.8 °C 1026.3 hPa NE 0.5 km/h 11.3 km/h 56% 0 mm 819 W/m2
10:49 18.9 °C 9.7 °C 1026.3 hPa ENE 0.5 km/h 11.3 km/h 55% 0 mm 842 W/m2
10:54 19.1 °C 9.9 °C 1026.3 hPa ENE 0.2 km/h 11.3 km/h 55.3% 0 mm 761 W/m2
10:59 19.4 °C 9.7 °C 1026.3 hPa ENE 1 km/h 11.3 km/h 53.2% 0 mm 728 W/m2
11:04 19.5 °C 9.4 °C 1026.3 hPa ENE 1.6 km/h 11.3 km/h 52.1% 0 mm 719 W/m2
11:09 19.4 °C 9.7 °C 1026.3 hPa ENE 1.6 km/h 8 km/h 53.4% 0 mm 828 W/m2
11:14 19.4 °C 9 °C 1026.3 hPa ENE 3.5 km/h 11.3 km/h 50.9% 0 mm 860 W/m2
11:19 19.2 °C 8.8 °C 1026.3 hPa East 3.1 km/h 11.3 km/h 50.8% 0 mm 872 W/m2
11:24 19.2 °C 9.3 °C 1026.3 hPa ENE 0.8 km/h 11.3 km/h 52.7% 0 mm 868 W/m2
11:29 19.6 °C 9.9 °C 1026.3 hPa ENE 0.6 km/h 11.3 km/h 53.9% 0 mm 893 W/m2
11:34 19.9 °C 10 °C 1026 hPa ENE 0.6 km/h 11.3 km/h 52.9% 0 mm 916 W/m2
11:39 20.1 °C 10.1 °C 1026 hPa NE 0.6 km/h 6.4 km/h 52.4% 0 mm 925 W/m2
11:44 20.4 °C 10.5 °C 1026 hPa NE 0.5 km/h 6.4 km/h 53% 0 mm 905 W/m2
11:49 20.6 °C 9.8 °C 1026 hPa NE 0.2 km/h 6.4 km/h 50% 0 mm 926 W/m2
11:54 20.4 °C 9.4 °C 1026 hPa ENE 3.1 km/h 6.4 km/h 49.1% 0 mm 921 W/m2
11:59 20.1 °C 9.1 °C 1026 hPa East 3.1 km/h 9.7 km/h 49% 0 mm 949 W/m2
12:09 20.2 °C 9.5 °C 1025.6 hPa East 0.2 km/h 1.6 km/h 50% 0 mm 969 W/m2
12:14 20.7 °C 10.8 °C 1025.6 hPa East 0.3 km/h 6.4 km/h 53% 0 mm 974 W/m2
12:19 21.2 °C 10.4 °C 1025.3 hPa East 1.1 km/h 6.4 km/h 50.4% 0 mm 981 W/m2
12:24 21.4 °C 10.2 °C 1025.3 hPa East 0.3 km/h 6.4 km/h 49% 0 mm 981 W/m2
12:29 21.3 °C 9.9 °C 1025.3 hPa East 0.3 km/h 6.4 km/h 48.2% 0 mm 981 W/m2
12:34 21.2 °C 10.1 °C 1025.3 hPa ESE 0.6 km/h 6.4 km/h 48.9% 0 mm 984 W/m2
12:39 21.1 °C 9.2 °C 1025.3 hPa ESE 0.8 km/h 6.4 km/h 46.5% 0 mm 984 W/m2
12:44 20.9 °C 9.9 °C 1024.9 hPa Calm   6.4 km/h 49.3% 0 mm 976 W/m2
12:49 20.9 °C 9.2 °C 1024.9 hPa ESE 0.5 km/h 6.4 km/h 47.1% 0 mm 981 W/m2
12:54 21 °C 9.9 °C 1024.9 hPa SE 0.2 km/h 6.4 km/h 49.1% 0 mm 977 W/m2
12:59 21.2 °C 9.8 °C 1024.9 hPa East 1.3 km/h 8 km/h 48.3% 0 mm 983 W/m2
13:04 21.3 °C 9.5 °C 1024.6 hPa ENE 3.1 km/h 11.3 km/h 46.9% 0 mm 981 W/m2
13:09 21.3 °C 8.9 °C 1024.6 hPa East 2.3 km/h 11.3 km/h 45.1% 0 mm 981 W/m2
13:14 21.3 °C 9.1 °C 1024.6 hPa ENE 2.7 km/h 11.3 km/h 45.7% 0 mm 981 W/m2
13:19 21.2 °C 8.3 °C 1024.6 hPa East 1 km/h 11.3 km/h 43.4% 0 mm 977 W/m2
13:24 21.3 °C 8.8 °C 1024.6 hPa ENE 1.1 km/h 11.3 km/h 44.8% 0 mm 976 W/m2
13:29 21.3 °C 9.3 °C 1024.6 hPa NE 0.8 km/h 11.3 km/h 46.1% 0 mm 962 W/m2
13:34 21.4 °C 9 °C 1024.6 hPa WNW 3.5 km/h 11.3 km/h 45% 0 mm 976 W/m2
13:39 21.5 °C 9.7 °C 1024.6 hPa WSW 1.3 km/h 9.7 km/h 47.1% 0 mm 979 W/m2
13:44 21.7 °C 9.4 °C 1024.6 hPa WSW 0.5 km/h 9.7 km/h 45.6% 0 mm 983 W/m2
13:49 21.8 °C 10.1 °C 1024.3 hPa WSW 0.3 km/h 9.7 km/h 47.2% 0 mm 981 W/m2
13:54 21.9 °C 10.1 °C 1024.3 hPa South 1 km/h 9.7 km/h 46.8% 0 mm 981 W/m2
13:59 21.9 °C 9.2 °C 1024.3 hPa SSW 1.3 km/h 9.7 km/h 44.3% 0 mm 967 W/m2
14:04 21.9 °C 9.7 °C 1024.3 hPa ENE 3.7 km/h 12.9 km/h 45.8% 0 mm 962 W/m2
14:09 22.1 °C 9 °C 1024.3 hPa NE 2.9 km/h 12.9 km/h 43.1% 0 mm 949 W/m2
14:14 22.2 °C 9.2 °C 1024.3 hPa North 2.3 km/h 12.9 km/h 43.6% 0 mm 942 W/m2
14:19 22.3 °C 9.6 °C 1024.3 hPa NNE 0.6 km/h 12.9 km/h 44.5% 0 mm 939 W/m2
14:24 22.4 °C 9.7 °C 1024.3 hPa NNE 0.2 km/h 12.9 km/h 44.5% 0 mm 935 W/m2
14:29 22.6 °C 10.2 °C 1024.3 hPa NNE 1.6 km/h 12.9 km/h 45.5% 0 mm 925 W/m2
14:34 22.6 °C 9.9 °C 1024.3 hPa Calm   12.9 km/h 44.7% 0 mm 933 W/m2
14:39 22.7 °C 10.3 °C 1024.3 hPa North 0.2 km/h 1.6 km/h 45.4% 0 mm 962 W/m2
14:44 22.8 °C 9.6 °C 1024.3 hPa North 0.2 km/h 3.2 km/h 42.9% 0 mm 935 W/m2
14:49 22.9 °C 9.6 °C 1024.3 hPa NE 1 km/h 6.4 km/h 42.6% 0 mm 904 W/m2
14:54 22.8 °C 9.7 °C 1024.3 hPa Calm   6.4 km/h 43.5% 0 mm 893 W/m2
14:59 22.7 °C 8.8 °C 1024.3 hPa ENE 1.6 km/h 6.4 km/h 41% 0 mm 879 W/m2
15:04 22.7 °C 9.3 °C 1024.3 hPa East 0.3 km/h 6.4 km/h 42.6% 0 mm 888 W/m2
15:09 22.6 °C 8.9 °C 1024.3 hPa Calm   3.2 km/h 41.5% 0 mm 893 W/m2
15:14 22.6 °C 8.6 °C 1023.9 hPa Calm   3.2 km/h 40.7% 0 mm 863 W/m2
15:19 22.5 °C 9.1 °C 1023.9 hPa East 1.9 km/h 6.4 km/h 42.5% 0 mm 856 W/m2
15:24 22.4 °C 8.5 °C 1023.9 hPa East 0.5 km/h 6.4 km/h 40.9% 0 mm 854 W/m2
15:29 22.3 °C 9.1 °C 1023.9 hPa Calm   6.4 km/h 42.8% 0 mm 861 W/m2
15:34 22.6 °C 9.8 °C 1023.9 hPa Calm   6.4 km/h 44.5% 0 mm 872 W/m2
15:39 22.9 °C 10.2 °C 1023.9 hPa East 0.5 km/h 3.2 km/h 44.6% 0 mm 881 W/m2
15:44 23.2 °C 10.1 °C 1023.9 hPa East 0.5 km/h 3.2 km/h 43.4% 0 mm 882 W/m2
15:49 23.4 °C 9.9 °C 1023.9 hPa East 0.5 km/h 4.8 km/h 42.6% 0 mm 886 W/m2
15:54 23.3 °C 10.7 °C 1023.9 hPa East 0.2 km/h 4.8 km/h 44.9% 0 mm 889 W/m2
15:59 23.6 °C 11.1 °C 1023.9 hPa ENE 1 km/h 4.8 km/h 45.5% 0 mm 886 W/m2
16:00 23.7 °C 10.7 °C 1023.9 hPa Calm   4.8 km/h 44% 0 mm 877 W/m2
16:09 23.6 °C 10.1 °C 1023.9 hPa Calm     42.5% 0 mm 851 W/m2
16:14 23.4 °C 10.2 °C 1023.9 hPa ENE 0.3 km/h 4.8 km/h 43.3% 0 mm 246 W/m2
16:19 23.2 °C 10 °C 1023.9 hPa Calm   4.8 km/h 43.3% 0 mm 227 W/m2
16:24 22.9 °C 10.3 °C 1023.9 hPa ENE 0.3 km/h 4.8 km/h 44.8% 0 mm 195 W/m2
16:29 22.8 °C 9.9 °C 1023.9 hPa ENE 0.5 km/h 4.8 km/h 44% 0 mm 183 W/m2
16:34 22.7 °C 9.9 °C 1023.9 hPa ENE 0.5 km/h 4.8 km/h 44.3% 0 mm 165 W/m2
16:39 22.7 °C 10.2 °C 1023.6 hPa ENE 0.3 km/h 4.8 km/h 45.4% 0 mm 155 W/m2
16:44 22.6 °C 9.9 °C 1023.6 hPa East 0.6 km/h 8 km/h 44.5% 0 mm 176 W/m2
16:49 22.3 °C 9.6 °C 1023.9 hPa East 0.3 km/h 8 km/h 44.3% 0 mm 197 W/m2
16:54 22 °C 9.7 °C 1023.9 hPa Calm   8 km/h 45.4% 0 mm 209 W/m2
16:59 21.8 °C 9.7 °C 1023.6 hPa Calm   8 km/h 46.1% 0 mm 216 W/m2
17:04 21.7 °C 9.4 °C 1023.6 hPa Calm   8 km/h 45.3% 0 mm 199 W/m2
17:09 21.7 °C 9.9 °C 1023.9 hPa Calm     47.1% 0 mm 183 W/m2
17:14 21.7 °C 10.4 °C 1023.9 hPa Calm   1.6 km/h 48.5% 0 mm 178 W/m2
17:19 21.8 °C 9.9 °C 1023.9 hPa Calm   1.6 km/h 47% 0 mm 165 W/m2
17:24 21.8 °C 10.7 °C 1023.9 hPa East 0.6 km/h 4.8 km/h 49.4% 0 mm 162 W/m2
17:29 21.7 °C 11.2 °C 1023.9 hPa SE 0.3 km/h 6.4 km/h 51.1% 0 mm 167 W/m2
17:34 21.6 °C 11.1 °C 1023.9 hPa SSE 0.3 km/h 6.4 km/h 51.2% 0 mm 178 W/m2
17:39 21.4 °C 11.3 °C 1023.9 hPa SSE 0.2 km/h 3.2 km/h 52.6% 0 mm 181 W/m2
17:44 21.3 °C 11.3 °C 1023.6 hPa SSE 0.8 km/h 3.2 km/h 52.9% 0 mm 176 W/m2
17:49 21.3 °C 10.9 °C 1023.9 hPa Calm   3.2 km/h 51.7% 0 mm 160 W/m2
17:54 21.2 °C 10.8 °C 1023.9 hPa Calm   3.2 km/h 51.5% 0 mm 171 W/m2
17:59 21.2 °C 10.8 °C 1023.6 hPa Calm   3.2 km/h 51.4% 0 mm 141 W/m2
18:04 21.2 °C 10.6 °C 1023.6 hPa Calm   3.2 km/h 50.8% 0 mm 127 W/m2
18:09 21.1 °C 10.7 °C 1023.6 hPa SSE 0.2 km/h 3.2 km/h 51.2% 0 mm 118 W/m2
18:14 21.1 °C 10.9 °C 1023.6 hPa SSE 0.8 km/h 4.8 km/h 52.2% 0 mm 111 W/m2
18:19 21.1 °C 10.8 °C 1023.6 hPa SSE 0.2 km/h 4.8 km/h 51.8% 0 mm 95 W/m2
18:24 21.1 °C 10.7 °C 1023.6 hPa Calm   4.8 km/h 51.7% 0 mm 90 W/m2
18:29 20.9 °C 10.6 °C 1023.6 hPa Calm   4.8 km/h 51.4% 0 mm 86 W/m2
18:34 20.8 °C 10.5 °C 1023.6 hPa SSE 0.5 km/h 4.8 km/h 51.7% 0 mm 62 W/m2
18:39 20.7 °C 9.8 °C 1023.6 hPa SSE 1.6 km/h 8 km/h 49.7% 0 mm 46 W/m2
18:44 20.3 °C 9.3 °C 1023.6 hPa SSE 1.3 km/h 8 km/h 49% 0 mm 42 W/m2
18:49 20.1 °C 9.2 °C 1023.9 hPa SSE 0.3 km/h 8 km/h 49.7% 0 mm 33 W/m2
18:54 19.9 °C 9.2 °C 1023.9 hPa SSE 0.2 km/h 8 km/h 50% 0 mm 28 W/m2
18:59 19.7 °C 9.3 °C 1023.9 hPa West 0.3 km/h 8 km/h 51% 0 mm 26 W/m2
19:04 19.6 °C 9 °C 1023.9 hPa Calm   8 km/h 50.4% 0 mm 33 W/m2
19:09 19.5 °C 9.1 °C 1023.9 hPa Calm   3.2 km/h 50.9% 0 mm 33 W/m2
19:14 19.4 °C 9 °C 1023.9 hPa Calm   3.2 km/h 51% 0 mm 33 W/m2
19:19 19.3 °C 9.2 °C 1023.9 hPa West 0.2 km/h 4.8 km/h 51.8% 0 mm 28 W/m2
19:24 19.2 °C 8.9 °C 1023.9 hPa West 0.2 km/h 4.8 km/h 51% 0 mm 25 W/m2
19:29 19.2 °C 9 °C 1024.3 hPa Calm   4.8 km/h 51.6% 0 mm 21 W/m2
19:34 19.1 °C 9.1 °C 1024.3 hPa Calm   4.8 km/h 52% 0 mm 21 W/m2
19:39 19.1 °C 9.2 °C 1024.3 hPa Calm     52.8% 0 mm 14 W/m2
19:44 18.9 °C 9.1 °C 1024.3 hPa Calm     53% 0 mm 14 W/m2
19:49 18.8 °C 9.1 °C 1024.3 hPa Calm     53.1% 0 mm 11 W/m2
19:54 18.7 °C 9.2 °C 1024.3 hPa Calm   1.6 km/h 54% 0 mm 9 W/m2
19:59 18.6 °C 8.8 °C 1024.3 hPa West 0.2 km/h 3.2 km/h 53% 0 mm 7 W/m2
20:09 18.3 °C 8.6 °C 1024.3 hPa West 0.3 km/h 3.2 km/h 52.9% 0 mm 0 W/m2
20:14 18.2 °C 8.4 °C 1024.6 hPa West 0.5 km/h 3.2 km/h 52.8% 0 mm 0 W/m2
20:19 18.1 °C 8.4 °C 1024.6 hPa West 0.2 km/h 3.2 km/h 53.1% 0 mm 0 W/m2
20:24 18 °C 8.4 °C 1024.6 hPa WSW 0.5 km/h 3.2 km/h 53.6% 0 mm 0 W/m2
20:29 17.8 °C 8.2 °C 1024.6 hPa WSW 0.6 km/h 4.8 km/h 53% 0 mm 0 W/m2
20:34 17.7 °C 7.8 °C 1024.9 hPa WSW 0.5 km/h 4.8 km/h 52.3% 0 mm 0 W/m2
20:39 17.6 °C 7.8 °C 1024.9 hPa Calm   3.2 km/h 52.8% 0 mm 0 W/m2
20:44 17.4 °C 7.8 °C 1025.3 hPa Calm   3.2 km/h 53.1% 0 mm 0 W/m2
20:49 17.3 °C 7.9 °C 1025.3 hPa Calm   3.2 km/h 54% 0 mm 0 W/m2
20:54 17.1 °C 7.7 °C 1025.3 hPa Calm   3.2 km/h 54% 0 mm 0 W/m2
20:59 16.9 °C 7.6 °C 1025.3 hPa Calm   3.2 km/h 54% 0 mm 0 W/m2
21:04 16.8 °C 7.6 °C 1025.3 hPa WSW 0.6 km/h 3.2 km/h 54.5% 0 mm 0 W/m2
21:09 16.7 °C 7.5 °C 1025.3 hPa WSW 0.3 km/h 4.8 km/h 54.7% 0 mm 0 W/m2
21:14 16.6 °C 7.6 °C 1025.6 hPa Calm   4.8 km/h 55.3% 0 mm 0 W/m2
21:19 16.4 °C 7.8 °C 1025.6 hPa Calm   4.8 km/h 56.5% 0 mm 0 W/m2
21:24 16.3 °C 7.8 °C 1026 hPa WSW 0.3 km/h 4.8 km/h 57.1% 0 mm 0 W/m2
21:29 16.1 °C 8.1 °C 1026 hPa WSW 0.8 km/h 4.8 km/h 58.9% 0 mm 0 W/m2
21:34 15.9 °C 8.3 °C 1026 hPa WSW 0.5 km/h 4.8 km/h 60.4% 0 mm 0 W/m2
21:39 15.8 °C 8.6 °C 1026 hPa WSW 0.6 km/h 4.8 km/h 62% 0 mm 0 W/m2
21:44 15.6 °C 8.9 °C 1026 hPa SW 0.6 km/h 6.4 km/h 64.6% 0 mm 0 W/m2
21:49 15.5 °C 9.1 °C 1026.3 hPa SSW 1.1 km/h 6.4 km/h 65.7% 0 mm 0 W/m2
21:54 15.3 °C 9.2 °C 1026.3 hPa SSW 1.9 km/h 8 km/h 66.8% 0 mm 0 W/m2
21:59 15.1 °C 9.3 °C 1026.3 hPa South 1.4 km/h 8 km/h 68.2% 0 mm 0 W/m2
22:04 14.9 °C 9.2 °C 1026.3 hPa SSW 0.8 km/h 8 km/h 69% 0 mm 0 W/m2
22:09 14.7 °C 9.3 °C 1026.3 hPa Calm   6.4 km/h 69.8% 0 mm 0 W/m2
22:14 14.6 °C 9.4 °C 1026.3 hPa Calm   6.4 km/h 71% 0 mm 0 W/m2
22:19 14.4 °C 9.3 °C 1026.6 hPa Calm   6.4 km/h 71% 0 mm 0 W/m2
22:24 14.3 °C 9.3 °C 1026.6 hPa Calm   6.4 km/h 71.8% 0 mm 0 W/m2
22:28 14.2 °C 9.2 °C 1026.3 hPa SSW 0.2 km/h 6.4 km/h 72% 0 mm 0 W/m2
22:34 14.1 °C 8.9 °C 1026.6 hPa SSW 0.5 km/h 6.4 km/h 71.2% 0 mm 0 W/m2
22:39 13.9 °C 8.7 °C 1026.6 hPa SSW 0.2 km/h 3.2 km/h 70.4% 0 mm 0 W/m2
22:44 13.8 °C 8.6 °C 1026.6 hPa Calm   3.2 km/h 70.4% 0 mm 0 W/m2
22:49 13.8 °C 8.6 °C 1026.6 hPa Calm   3.2 km/h 71% 0 mm 0 W/m2
22:54 13.7 °C 8.4 °C 1026.6 hPa Calm   3.2 km/h 70.8% 0 mm 0 W/m2
22:59 13.6 °C 8.3 °C 1026.6 hPa Calm   3.2 km/h 70.5% 0 mm 0 W/m2
23:04 13.4 °C 8 °C 1026.6 hPa Calm   3.2 km/h 69.6% 0 mm 0 W/m2
23:09 13.3 °C 7.7 °C 1026.6 hPa Calm     68.6% 0 mm 0 W/m2
23:14 13.3 °C 7.6 °C 1026.6 hPa Calm     68.2% 0 mm 0 W/m2
23:18 13.2 °C 7.7 °C 1026.6 hPa Calm     69% 0 mm 0 W/m2
23:24 13.1 °C 7.6 °C 1026.6 hPa Calm     69% 0 mm 0 W/m2
23:29 13 °C 7.5 °C 1026.6 hPa Calm     69% 0 mm 0 W/m2
23:34 12.9 °C 7.6 °C 1026.6 hPa Calm     70% 0 mm 0 W/m2
23:39 12.8 °C 7.6 °C 1026.6 hPa Calm     70.2% 0 mm 0 W/m2
23:44 12.8 °C 7.7 °C 1026.6 hPa Calm     71.2% 0 mm 0 W/m2
23:49 12.7 °C 7.8 °C 1026.6 hPa Calm     72% 0 mm 0 W/m2
23:54 12.6 °C 7.8 °C 1026.6 hPa Calm     72.5% 0 mm 0 W/m2
23:59 12.6 °C 7.8 °C 1026.6 hPa Calm     73% 0 mm 0 W/m2
Hartford County Weather
Compliments of Weather Underground - 2 mb